Time;durP1;ratioP1;P1;durP2;ratioP2;P2;SDS_P1;SDS_P2;PMS_P1;PMS_P2;Temp;Humidity;BMP_temperature;BMP_pressure;BME280_temperature;BME280_humidity;BME280_pressure;Samples;Min_cycle;Max_cycle;Signal;HPM_P1;HPM_P2
2021/10/01 00:01:54;;;;;;;23.33;11.73;;;410.30;2355.20;;;;;;4995928;28;20025;-90
2021/10/01 00:04:24;;;;;;;15.52;11.45;;;410.30;2355.20;;;;;;4995681;28;20022;-91
2021/10/01 00:06:51;;;;;;;14.82;10.82;;;410.30;2355.20;;;;;;4995969;28;20489;-88
2021/10/01 00:09:20;;;;;;;16.63;11.13;;;410.30;2355.20;;;;;;4995865;28;20029;-91
2021/10/01 00:11:51;;;;;;;17.98;10.98;;;410.30;2355.20;;;;;;4995926;28;20052;-90
2021/10/01 00:14:19;;;;;;;17.10;11.20;;;435.20;2355.20;;;;;;4996090;28;20038;-90
2021/10/01 00:16:45;;;;;;;17.63;10.88;;;410.30;2355.20;;;;;;4996454;28;20492;-90
2021/10/01 00:19:12;;;;;;;17.80;11.52;;;410.30;2355.20;;;;;;4996091;28;20026;-89
2021/10/01 00:21:39;;;;;;;15.57;10.32;;;410.30;2355.20;;;;;;4996415;28;20030;-90
2021/10/01 00:24:07;;;;;;;14.35;10.40;;;410.20;2355.20;;;;;;4995559;28;20030;-90
2021/10/01 00:26:37;;;;;;;18.38;10.43;;;410.20;2355.20;;;;;;4996350;28;20072;-88
2021/10/01 00:29:04;;;;;;;16.52;10.85;;;410.20;2355.20;;;;;;4995953;28;20018;-89
2021/10/01 00:31:39;;;;;;;18.30;10.52;;;410.20;2355.20;;;;;;4995213;28;20165;-90
2021/10/01 00:34:06;;;;;;;15.20;10.95;;;410.20;2355.20;;;;;;4994950;28;20096;-88
2021/10/01 00:36:32;;;;;;;14.88;10.02;;;410.20;2355.20;;;;;;4995178;28;20035;-90
2021/10/01 00:38:59;;;;;;;17.10;10.43;;;410.20;2355.20;;;;;;4995274;28;20113;-89
2021/10/01 00:41:27;;;;;;;17.13;10.93;;;410.20;2355.20;;;;;;4995159;28;20058;-87
2021/10/01 00:43:54;;;;;;;15.93;10.50;;;410.20;2355.20;;;;;;4995183;28;20121;-91
2021/10/01 00:46:21;;;;;;;16.92;11.30;;;410.10;2355.20;;;;;;4995108;28;20033;-90
2021/10/01 00:48:48;;;;;;;15.75;10.10;;;410.10;2355.20;;;;;;4994967;28;20029;-88
2021/10/01 00:51:15;;;;;;;15.95;10.10;;;410.10;2355.20;;;;;;4994860;28;20022;-88
2021/10/01 00:53:43;;;;;;;18.10;10.48;;;435.30;2355.20;;;;;;4995082;28;20425;-88
2021/10/01 00:56:10;;;;;;;13.27;9.30;;;410.00;2355.20;;;;;;4994782;28;20034;-88
2021/10/01 00:58:36;;;;;;;17.00;10.50;;;410.00;2355.20;;;;;;4995191;28;20462;-88
2021/10/01 01:01:11;;;;;;;15.18;10.55;;;410.00;2355.20;;;;;;4995109;28;20027;-90
2021/10/01 01:03:54;;;;;;;14.95;10.10;;;410.00;2355.20;;;;;;4994418;28;20034;-89
2021/10/01 01:06:46;;;;;;;13.30;9.45;;;410.00;2355.20;;;;;;4994514;28;20049;-90
2021/10/01 01:09:31;;;;;;;15.85;10.15;;;410.00;2355.20;;;;;;4978374;28;20031;-91
2021/10/01 01:12:39;;;;;;;17.42;9.25;;;410.00;2355.20;;;;;;4978148;28;20114;-90
2021/10/01 01:15:32;;;;;;;15.00;9.15;;;409.90;2355.20;;;;;;4978301;28;20022;-89
2021/10/01 01:18:06;;;;;;;;;;;409.90;2355.20;;;;;;4994713;28;20057;-90
2021/10/01 01:20:58;;;;;;;12.57;8.23;;;410.00;2355.20;;;;;;4994463;28;19913;-90
2021/10/01 01:23:36;;;;;;;13.43;9.18;;;410.00;2355.20;;;;;;4994470;28;20026;-91
2021/10/01 01:26:27;;;;;;;14.65;9.50;;;410.00;2355.20;;;;;;4978211;28;20125;-90
2021/10/01 01:29:12;;;;;;;15.50;9.52;;;410.00;2355.20;;;;;;4978396;28;20129;-90
2021/10/01 01:31:41;;;;;;;12.15;8.65;;;410.00;2355.20;;;;;;4977627;28;20044;-91
2021/10/01 01:34:07;;;;;;;12.32;8.27;;;410.10;2355.20;;;;;;4978118;28;20066;-89
2021/10/01 01:36:35;;;;;;;15.52;9.35;;;410.20;2355.20;;;;;;4994209;28;20577;-91
2021/10/01 01:39:03;;;;;;;16.25;8.52;;;410.10;2355.20;;;;;;4995888;28;20466;-89
2021/10/01 01:41:31;;;;;;;12.55;9.77;;;410.10;2355.20;;;;;;4995179;28;20536;-89
2021/10/01 01:44:01;;;;;;;15.82;9.57;;;410.10;2355.20;;;;;;4995496;28;20061;-89
2021/10/01 01:46:27;;;;;;;14.43;9.43;;;410.00;2355.20;;;;;;4993869;28;20390;-90
2021/10/01 01:48:54;;;;;;;15.82;9.32;;;410.00;2355.20;;;;;;4994611;28;20030;-91
2021/10/01 01:51:23;;;;;;;21.30;11.43;;;410.00;2355.20;;;;;;4994467;28;20034;-91
2021/10/01 01:53:50;;;;;;;14.10;9.38;;;409.90;2355.20;;;;;;4994706;28;20034;-90
2021/10/01 01:56:16;;;;;;;12.20;9.07;;;409.90;2355.20;;;;;;4994508;28;20030;-91
2021/10/01 01:58:44;;;;;;;13.77;8.85;;;410.00;2355.20;;;;;;4994136;28;20532;-91
2021/10/01 02:01:12;;;;;;;19.40;9.85;;;410.00;2355.20;;;;;;4994217;28;20030;-92
2021/10/01 02:03:39;;;;;;;13.85;9.38;;;410.00;2355.20;;;;;;4994570;28;20018;-90
2021/10/01 02:06:06;;;;;;;19.13;10.70;;;410.00;2355.20;;;;;;4994061;28;20041;-91
2021/10/01 02:08:33;;;;;;;19.88;11.95;;;410.40;2355.20;;;;;;4994541;28;20032;-90
2021/10/01 02:11:00;;;;;;;15.43;9.10;;;410.10;2355.20;;;;;;4995037;28;20022;-91
2021/10/01 02:13:26;;;;;;;15.25;9.48;;;410.00;2355.20;;;;;;4995299;28;20084;-90
2021/10/01 02:15:54;;;;;;;17.35;9.63;;;410.10;2355.20;;;;;;4993728;28;20038;-89
2021/10/01 02:18:26;;;;;;;14.77;10.20;;;410.10;2355.20;;;;;;4993811;28;20030;-89
2021/10/01 02:20:55;;;;;;;15.75;9.75;;;410.10;2355.20;;;;;;4993786;28;20451;-90
2021/10/01 02:23:22;;;;;;;14.48;9.98;;;410.10;2355.20;;;;;;4993647;28;20117;-91
2021/10/01 02:28:42;;;;;;;14.40;9.63;;;410.10;2355.20;;;;;;4994894;28;20033;-90
2021/10/01 02:31:16;;;;;;;16.08;9.13;;;410.10;2355.20;;;;;;4994024;28;20026;-90
2021/10/01 02:33:45;;;;;;;13.25;8.75;;;410.10;2355.20;;;;;;4993633;28;20054;-91
2021/10/01 02:36:12;;;;;;;19.33;12.00;;;410.10;2355.20;;;;;;4977305;28;20066;-91
2021/10/01 02:38:38;;;;;;;17.08;9.00;;;410.00;2355.20;;;;;;4993656;28;20034;-90
2021/10/01 02:41:05;;;;;;;19.42;9.07;;;410.00;2355.20;;;;;;4993350;28;20030;-92
2021/10/01 02:43:31;;;;;;;14.90;8.85;;;410.00;2355.20;;;;;;4993638;28;20034;-91
2021/10/01 02:45:57;;;;;;;12.88;8.35;;;410.00;2355.20;;;;;;4993303;28;20382;-91
2021/10/01 02:48:23;;;;;;;13.65;8.85;;;410.00;2355.20;;;;;;4993476;28;20027;-91
2021/10/01 02:50:57;;;;;;;11.27;8.77;;;410.00;2355.20;;;;;;4993593;28;20030;-90
2021/10/01 02:53:47;;;;;;;15.07;9.02;;;410.10;2355.20;;;;;;4993866;28;20532;-89
2021/10/01 02:56:23;;;;;;;15.13;9.38;;;410.00;2355.20;;;;;;4994864;28;20386;-90
2021/10/01 02:58:56;;;;;;;15.95;9.73;;;409.90;2355.20;;;;;;4997153;28;20030;-90
2021/10/01 03:01:26;;;;;;;16.70;9.20;;;409.80;2355.20;;;;;;4997131;28;20026;-90
2021/10/01 03:03:56;;;;;;;14.95;8.48;;;409.80;2355.20;;;;;;4996858;28;20022;-88
2021/10/01 03:06:23;;;;;;;15.27;9.27;;;409.80;2355.20;;;;;;4997086;28;20026;-91
2021/10/01 03:08:52;;;;;;;14.77;9.90;;;409.80;2355.20;;;;;;4996893;28;20441;-91
2021/10/01 03:11:19;;;;;;;15.07;10.23;;;409.70;2355.20;;;;;;4996611;28;20023;-90
2021/10/01 03:13:48;;;;;;;16.75;9.25;;;409.90;2355.20;;;;;;4996738;28;20085;-89
2021/10/01 03:16:18;;;;;;;13.65;8.68;;;409.90;2355.20;;;;;;4996641;28;20065;-90
2021/10/01 03:18:46;;;;;;;20.27;9.80;;;409.90;2355.20;;;;;;4996795;28;20027;-91
2021/10/01 03:21:13;;;;;;;11.52;9.05;;;409.90;2355.20;;;;;;4996641;28;20037;-89
2021/10/01 03:23:40;;;;;;;12.88;8.70;;;409.90;2355.20;;;;;;4996440;28;20030;-90
2021/10/01 03:26:06;;;;;;;14.00;8.98;;;409.90;2355.20;;;;;;4996633;28;20037;-90
2021/10/01 03:28:34;;;;;;;18.88;9.02;;;410.00;2355.20;;;;;;4996635;28;20031;-90
2021/10/01 03:31:01;;;;;;;14.10;9.73;;;409.90;2355.20;;;;;;4996679;28;20077;-90
2021/10/01 03:33:28;;;;;;;16.92;9.98;;;409.90;2355.20;;;;;;4996272;28;20046;-90
2021/10/01 03:35:54;;;;;;;17.17;9.82;;;409.90;2355.20;;;;;;4996124;28;20060;-91
2021/10/01 03:38:20;;;;;;;16.75;10.70;;;409.90;2355.20;;;;;;4996200;28;20029;-91
2021/10/01 03:40:47;;;;;;;17.88;10.68;;;409.90;2355.20;;;;;;4996205;28;20416;-90
2021/10/01 03:43:14;;;;;;;15.07;11.18;;;409.90;2355.20;;;;;;4996197;28;20027;-90
2021/10/01 03:45:40;;;;;;;17.40;9.73;;;409.90;2355.20;;;;;;4996369;28;20118;-89
2021/10/01 03:48:07;;;;;;;17.85;10.30;;;409.90;2355.20;;;;;;4996462;28;20117;-90
2021/10/01 03:50:35;;;;;;;17.73;11.50;;;409.70;2355.20;;;;;;4996331;28;20100;-90
2021/10/01 03:53:01;;;;;;;16.42;10.00;;;384.90;2329.60;;;;;;4996197;28;20030;-90
2021/10/01 03:55:27;;;;;;;17.48;10.07;;;409.60;2355.20;;;;;;5001039;28;20023;-90
2021/10/01 03:57:54;;;;;;;14.68;10.18;;;384.90;2329.60;;;;;;5000582;28;20074;-90
2021/10/01 04:00:20;;;;;;;15.13;10.05;;;409.70;2355.20;;;;;;4998729;28;20030;-90
2021/10/01 04:02:46;;;;;;;14.05;9.25;;;409.70;2355.20;;;;;;4996336;28;20467;-90
2021/10/01 04:05:13;;;;;;;14.13;9.25;;;409.70;2355.20;;;;;;4995807;28;20023;-91
2021/10/01 04:07:39;;;;;;;16.58;11.38;;;409.80;2355.20;;;;;;4995382;28;20041;-91
2021/10/01 04:10:07;;;;;;;17.63;10.00;;;409.70;2355.20;;;;;;5002073;28;20034;-89
2021/10/01 04:12:34;;;;;;;16.27;9.68;;;409.70;2355.20;;;;;;5004228;28;20089;-89
2021/10/01 04:14:59;;;;;;;14.48;10.48;;;409.70;2355.20;;;;;;4988125;28;20030;-90
2021/10/01 04:17:25;;;;;;;20.40;13.20;;;409.70;2355.20;;;;;;5001796;28;20038;-90
2021/10/01 04:19:51;;;;;;;19.67;11.98;;;384.90;2329.60;;;;;;4995819;28;20033;-91
2021/10/01 04:22:18;;;;;;;17.48;10.90;;;409.70;2355.20;;;;;;4995360;28;20026;-89
2021/10/01 04:24:44;;;;;;;18.73;12.35;;;409.70;2355.20;;;;;;4997110;28;20049;-89
2021/10/01 04:27:10;;;;;;;19.80;10.80;;;409.70;2355.20;;;;;;5001707;28;20112;-89
2021/10/01 04:29:36;;;;;;;18.83;11.20;;;409.60;2355.20;;;;;;5004703;28;20026;-88
2021/10/01 04:32:05;;;;;;;16.80;10.50;;;384.80;2329.60;;;;;;5004816;28;20023;-89
2021/10/01 04:34:33;;;;;;;12.63;10.65;;;384.90;2329.60;;;;;;5003302;28;20054;-91
2021/10/01 04:37:00;;;;;;;15.98;10.70;;;384.90;2329.60;;;;;;5000966;28;20363;-89
2021/10/01 04:39:26;;;;;;;16.42;11.30;;;409.60;2355.20;;;;;;5000572;28;20116;-88
2021/10/01 04:41:52;;;;;;;20.05;11.88;;;384.80;2329.60;;;;;;4997180;28;20396;-90
2021/10/01 04:44:18;;;;;;;18.00;12.30;;;384.70;2329.60;;;;;;5014126;28;20014;-88
2021/10/01 04:46:44;;;;;;;20.60;13.02;;;384.60;2329.60;;;;;;5018600;28;20030;-91
2021/10/01 04:49:12;;;;;;;16.63;11.40;;;384.50;2329.60;;;;;;5006451;28;20101;-88
2021/10/01 04:51:38;;;;;;;21.42;11.38;;;384.60;2329.60;;;;;;5009479;28;20034;-89
2021/10/01 04:54:04;;;;;;;17.17;11.05;;;384.70;2329.60;;;;;;5018575;28;20038;-92
2021/10/01 04:56:30;;;;;;;18.77;11.90;;;384.80;2329.60;;;;;;5018680;28;20046;-89
2021/10/01 04:58:56;;;;;;;19.10;11.02;;;384.80;2329.60;;;;;;5015046;28;20030;-89
2021/10/01 05:01:22;;;;;;;15.32;11.45;;;384.80;2329.60;;;;;;5014394;28;20025;-91
2021/10/01 05:03:48;;;;;;;15.80;10.23;;;384.80;2329.60;;;;;;5018923;28;20006;-88
2021/10/01 05:06:14;;;;;;;15.55;11.35;;;384.90;2329.60;;;;;;5018827;28;20030;-90
2021/10/01 05:08:40;;;;;;;18.50;11.32;;;384.90;2329.60;;;;;;5018686;28;20026;-90
2021/10/01 05:11:06;;;;;;;17.65;12.30;;;384.90;2329.60;;;;;;5019212;28;20065;-91
2021/10/01 05:13:32;;;;;;;16.02;11.32;;;384.90;2329.60;;;;;;5001202;28;20442;-90
2021/10/01 05:15:58;;;;;;;16.60;11.25;;;384.90;2329.60;;;;;;5001173;28;20035;-88
2021/10/01 05:18:24;;;;;;;15.95;10.60;;;384.90;2329.60;;;;;;5000303;28;20027;-91
2021/10/01 05:20:51;;;;;;;18.17;10.18;;;384.90;2329.60;;;;;;4996524;28;20039;-90
2021/10/01 05:23:17;;;;;;;20.52;13.73;;;410.20;2355.20;;;;;;4995827;28;20137;-91
2021/10/01 05:25:49;;;;;;;18.63;10.85;;;384.90;2329.60;;;;;;4995008;28;20029;-94
2021/10/01 05:28:29;;;;;;;16.63;10.32;;;384.90;2329.60;;;;;;4978729;28;20490;-93
2021/10/01 05:30:56;;;;;;;17.27;10.15;;;384.90;2329.60;;;;;;4994714;28;20030;-90
2021/10/01 05:33:23;;;;;;;27.23;14.32;;;384.90;2329.60;;;;;;4993819;28;20146;-91
2021/10/01 05:35:53;;;;;;;22.50;14.18;;;384.50;2329.60;;;;;;4993649;28;20042;-92
2021/10/01 05:38:26;;;;;;;22.98;12.75;;;384.80;2329.60;;;;;;4994030;28;20113;-93
2021/10/01 05:40:57;;;;;;;16.35;10.10;;;384.90;2329.60;;;;;;4994032;28;20474;-91
2021/10/01 05:43:35;;;;;;;14.30;9.00;;;384.90;2329.60;;;;;;4977901;28;20031;-90
2021/10/01 05:46:03;;;;;;;17.60;9.32;;;384.90;2329.60;;;;;;4978014;28;20441;-91
2021/10/01 05:48:33;;;;;;;11.05;9.02;;;384.90;2329.60;;;;;;4994447;28;20540;-89
2021/10/01 05:51:51;;;;;;;17.55;9.48;;;384.90;2329.60;;;;;;4994084;28;20077;-90
2021/10/01 05:54:38;;;;;;;16.95;10.32;;;384.90;2329.60;;;;;;4919097;29;20484;-91
2021/10/01 05:57:07;;;;;;;17.55;10.18;;;384.90;2329.60;;;;;;4901536;29;20071;-89
2021/10/01 06:00:21;;;;;;;16.92;11.02;;;384.90;2329.60;;;;;;4900277;29;20028;-95
2021/10/01 06:02:52;;;;;;;21.17;11.73;;;409.60;2355.20;;;;;;4912181;29;20036;-89
2021/10/01 06:05:18;;;;;;;16.42;11.00;;;384.80;2329.60;;;;;;4950367;28;20026;-90
2021/10/01 06:07:45;;;;;;;19.63;10.63;;;409.70;2355.20;;;;;;4978307;28;20433;-89
2021/10/01 06:10:15;;;;;;;25.58;12.02;;;409.70;2355.20;;;;;;4994365;28;20026;-89
2021/10/01 06:12:43;;;;;;;14.88;10.00;;;409.70;2355.20;;;;;;4994426;28;20161;-89
2021/10/01 06:15:10;;;;;;;12.90;9.57;;;409.80;2355.20;;;;;;4993976;28;20046;-90
2021/10/01 06:17:36;;;;;;;16.38;10.25;;;409.80;2355.20;;;;;;4993719;28;20027;-91
2021/10/01 06:20:05;;;;;;;18.33;10.00;;;409.80;2355.20;;;;;;4993800;28;20029;-88
2021/10/01 06:22:30;;;;;;;16.88;9.48;;;409.80;2355.20;;;;;;4994047;28;20034;-91
2021/10/01 06:24:56;;;;;;;13.25;9.57;;;409.90;2355.20;;;;;;4993789;28;20022;-88
2021/10/01 06:27:22;;;;;;;13.55;9.35;;;409.90;2355.20;;;;;;4993714;28;20033;-90
2021/10/01 06:29:50;;;;;;;13.07;8.90;;;410.00;2355.20;;;;;;4993740;28;20048;-91
2021/10/01 06:32:16;;;;;;;17.17;8.55;;;410.10;2355.20;;;;;;4996688;28;20033;-91
2021/10/01 06:34:42;;;;;;;16.52;9.27;;;410.10;2355.20;;;;;;4981172;28;20072;-90
2021/10/01 06:37:08;;;;;;;27.58;12.80;;;410.10;2355.20;;;;;;4998001;28;20460;-87
2021/10/01 06:39:34;;;;;;;20.73;12.80;;;410.10;2355.20;;;;;;4997591;28;20105;-91
2021/10/01 06:42:00;;;;;;;29.63;15.48;;;410.10;2355.20;;;;;;4997578;28;20386;-89
2021/10/01 06:44:29;;;;;;;23.77;13.90;;;410.20;2355.20;;;;;;4997684;28;20026;-89
2021/10/01 06:47:02;;;;;;;16.58;10.90;;;410.20;2355.20;;;;;;4997733;28;20436;-89
2021/10/01 06:49:38;;;;;;;17.42;10.55;;;410.20;2355.20;;;;;;4997804;28;20054;-89
2021/10/01 07:22:44;;;;;;;16.75;10.90;;;410.50;2355.20;;;;;;4998384;28;20029;-91
2021/10/01 08:19:48;;;;;;;19.15;10.90;;;436.00;2355.20;;;;;;4999016;28;20069;-86
2021/10/01 08:22:13;;;;;;;20.77;11.60;;;435.90;2355.20;;;;;;4997997;28;20054;-86
2021/10/01 08:24:40;;;;;;;18.17;10.23;;;436.10;2355.20;;;;;;4997558;28;20450;-86
2021/10/01 08:27:06;;;;;;;19.50;10.25;;;460.80;2380.80;;;;;;4995350;28;20034;-86
2021/10/01 08:29:33;;;;;;;24.65;10.55;;;461.60;2380.80;;;;;;4995585;28;20092;-87
2021/10/01 08:32:06;;;;;;;16.45;9.88;;;461.10;2380.80;;;;;;4979059;28;20035;-87
2021/10/01 08:34:34;;;;;;;16.17;9.60;;;461.20;2380.80;;;;;;4994809;28;20053;-82
2021/10/01 08:37:01;;;;;;;14.80;9.25;;;461.30;2380.80;;;;;;4994808;28;20113;-83
2021/10/01 08:39:27;;;;;;;15.23;9.07;;;461.40;2380.80;;;;;;4995001;28;20035;-85
2021/10/01 08:41:53;;;;;;;16.73;9.38;;;461.40;2380.80;;;;;;4994971;28;20049;-84
2021/10/01 08:44:19;;;;;;;17.80;9.05;;;461.50;2380.80;;;;;;4995251;28;20030;-84
2021/10/01 08:46:48;;;;;;;17.80;11.23;;;461.50;2380.80;;;;;;4994823;28;20562;-85
2021/10/01 08:49:14;;;;;;;16.05;9.35;;;461.60;2380.80;;;;;;4995224;28;20093;-85
2021/10/01 08:51:41;;;;;;;18.23;8.68;;;461.70;2380.80;;;;;;4994969;28;20026;-86
2021/10/01 08:54:07;;;;;;;16.38;8.23;;;461.70;2380.80;;;;;;4996427;28;20381;-84
2021/10/01 08:56:33;;;;;;;14.65;9.18;;;461.70;2380.80;;;;;;4994663;28;20030;-84
2021/10/01 08:58:59;;;;;;;17.15;8.80;;;435.60;2355.20;;;;;;4994628;28;20072;-85
2021/10/01 09:01:25;;;;;;;13.45;7.35;;;486.40;2380.80;;;;;;4994730;28;20030;-86
2021/10/01 09:03:52;;;;;;;11.93;7.25;;;486.40;2380.80;;;;;;4995105;28;20030;-84
2021/10/01 09:06:18;;;;;;;14.15;8.52;;;486.50;2380.80;;;;;;4995119;28;20390;-86
2021/10/01 09:08:53;;;;;;;14.40;8.07;;;486.50;2380.80;;;;;;4996204;28;20027;-86
2021/10/01 09:11:31;;;;;;;14.63;6.65;;;486.60;2380.80;;;;;;4993928;28;20058;-87
2021/10/01 09:14:06;;;;;;;15.35;7.97;;;486.60;2380.80;;;;;;4994306;28;20026;-85
2021/10/01 09:16:32;;;;;;;13.30;6.88;;;486.60;2380.80;;;;;;4994404;28;20385;-87
2021/10/01 09:18:59;;;;;;;14.45;7.57;;;486.70;2380.80;;;;;;4994368;28;20027;-87
2021/10/01 09:21:25;;;;;;;17.25;9.52;;;486.70;2380.80;;;;;;4994231;28;20478;-85
2021/10/01 09:23:59;;;;;;;14.45;9.30;;;486.70;2380.80;;;;;;4994311;28;20125;-83
2021/10/01 09:26:25;;;;;;;13.10;7.70;;;486.70;2380.80;;;;;;4994474;28;20124;-86
2021/10/01 09:29:00;;;;;;;19.85;7.60;;;486.70;2380.80;;;;;;4994106;28;20034;-86
2021/10/01 09:31:47;;;;;;;12.23;7.20;;;486.70;2380.80;;;;;;4995493;28;20031;-86
2021/10/01 09:34:25;;;;;;;14.65;7.13;;;486.70;2380.80;;;;;;4993625;28;20081;-84
2021/10/01 09:36:58;;;;;;;20.52;12.75;;;486.70;2380.80;;;;;;4977856;28;20030;-84
2021/10/01 09:39:34;;;;;;;15.00;9.18;;;486.70;2380.80;;;;;;4977950;28;20030;-81
2021/10/01 09:42:15;;;;;;;270.30;29.10;;;486.90;2380.80;;;;;;4993583;28;20026;-82
2021/10/01 09:44:48;;;;;;;22.42;7.28;;;487.00;2380.80;;;;;;4994069;28;20029;-84
2021/10/01 09:47:14;;;;;;;16.58;7.28;;;487.10;2380.80;;;;;;4993986;28;20030;-85
2021/10/01 09:49:40;;;;;;;21.85;7.63;;;487.20;2380.80;;;;;;4993560;28;20414;-84
2021/10/01 09:52:07;;;;;;;13.30;6.40;;;487.30;2380.80;;;;;;4993858;28;20493;-85
2021/10/01 09:54:33;;;;;;;11.50;8.15;;;512.00;2380.80;;;;;;4993978;28;20061;-85
2021/10/01 09:57:05;;;;;;;12.25;7.10;;;512.00;2380.80;;;;;;4993722;28;20104;-87
2021/10/01 09:59:33;;;;;;;9.30;5.93;;;512.00;2380.80;;;;;;4994344;28;20078;-88
2021/10/01 10:02:12;;;;;;;12.38;6.80;;;512.10;2380.80;;;;;;4994369;28;20046;-87
2021/10/01 10:04:53;;;;;;;12.05;7.20;;;512.00;2380.80;;;;;;4992644;28;20026;-86
2021/10/01 10:07:21;;;;;;;16.00;7.68;;;512.10;2380.80;;;;;;4997505;28;20352;-84
2021/10/01 10:10:08;;;;;;;12.55;7.35;;;512.40;2380.80;;;;;;4997931;28;20105;-87
2021/10/01 10:12:36;;;;;;;12.93;6.65;;;512.80;2380.80;;;;;;4997203;28;20026;-87
2021/10/01 10:15:08;;;;;;;13.18;7.40;;;512.90;2380.80;;;;;;4997558;28;20022;-87
2021/10/01 10:17:34;;;;;;;11.93;6.60;;;537.80;2406.40;;;;;;4997055;28;20035;-87
2021/10/01 10:20:02;;;;;;;13.02;6.85;;;537.70;2329.60;;;;;;4997697;28;20388;-87
2021/10/01 10:22:31;;;;;;;14.18;7.03;;;512.80;2329.60;;;;;;4997624;28;20363;-87
2021/10/01 10:24:57;;;;;;;12.65;6.95;;;512.70;2355.20;;;;;;4997974;28;20034;-87
2021/10/01 10:27:28;;;;;;;13.75;7.28;;;512.50;2355.20;;;;;;4996411;28;20428;-87
2021/10/01 10:29:58;;;;;;;12.20;6.07;;;512.40;2380.80;;;;;;4996552;28;20053;-90
2021/10/01 10:32:28;;;;;;;12.98;7.47;;;512.40;2355.20;;;;;;4997644;28;20022;-88
2021/10/01 10:34:59;;;;;;;23.80;11.13;;;512.40;2380.80;;;;;;5005788;28;20046;-88
2021/10/01 10:37:37;;;;;;;19.50;9.68;;;512.70;2355.20;;;;;;5000002;28;20030;-87
2021/10/01 10:40:11;;;;;;;15.13;9.95;;;537.60;2329.60;;;;;;4998577;28;20050;-87
2021/10/01 10:42:48;;;;;;;11.25;8.27;;;537.60;2355.20;;;;;;4980636;28;20054;-86
2021/10/01 10:45:27;;;;;;;16.13;7.95;;;512.90;2329.60;;;;;;4997667;28;20060;-87
2021/10/01 10:48:11;;;;;;;22.05;7.95;;;512.90;2355.20;;;;;;4996994;28;20026;-87
2021/10/01 10:50:49;;;;;;;15.98;7.95;;;512.70;2329.60;;;;;;4997938;28;20058;-87
2021/10/01 10:53:19;;;;;;;13.50;8.02;;;512.70;2329.60;;;;;;4996818;28;20109;-84
2021/10/01 10:55:51;;;;;;;13.68;8.80;;;512.60;2329.60;;;;;;4995868;28;20478;-86
2021/10/01 10:58:23;;;;;;;13.87;7.87;;;512.50;2304.00;;;;;;4978925;28;20026;-85
2021/10/01 11:00:56;;;;;;;17.00;8.85;;;512.50;2329.60;;;;;;4981891;28;20319;-85
2021/10/01 11:03:28;;;;;;;16.48;9.00;;;512.60;2355.20;;;;;;4997651;28;20030;-86
2021/10/01 11:06:12;;;;;;;10.85;7.00;;;512.50;2329.60;;;;;;4996732;28;20034;-83
2021/10/01 11:08:47;;;;;;;15.02;6.80;;;512.40;2329.60;;;;;;4980769;28;20030;-84
2021/10/01 11:11:33;;;;;;;16.63;7.28;;;512.40;2329.60;;;;;;4996708;28;20477;-87
2021/10/01 11:14:20;;;;;;;13.85;7.45;;;512.30;2329.60;;;;;;4980297;28;20034;-84
2021/10/01 11:16:52;;;;;;;17.10;10.30;;;512.30;2304.00;;;;;;4980096;28;20041;-85
2021/10/01 11:19:45;;;;;;;15.02;11.00;;;512.30;2329.60;;;;;;4979215;28;20022;-84
2021/10/01 11:22:39;;;;;;;26.15;14.70;;;512.30;2304.00;;;;;;4997012;28;20115;-84
2021/10/01 11:25:05;;;;;;;16.10;10.93;;;512.30;2304.00;;;;;;4996724;28;20382;-82
2021/10/01 11:27:32;;;;;;;15.90;9.35;;;512.20;2304.00;;;;;;4979644;28;20101;-86
2021/10/01 11:29:59;;;;;;;14.55;8.65;;;512.10;2304.00;;;;;;4979998;28;20030;-83
2021/10/01 11:32:27;;;;;;;12.95;7.35;;;512.20;2329.60;;;;;;4980539;28;20090;-83
2021/10/01 11:34:57;;;;;;;12.18;6.93;;;512.30;2329.60;;;;;;4979533;28;20133;-84
2021/10/01 11:37:23;;;;;;;12.98;7.22;;;512.30;2329.60;;;;;;4979298;28;20466;-84
2021/10/01 11:39:49;;;;;;;14.40;6.80;;;512.30;2329.60;;;;;;4996023;28;20034;-86
2021/10/01 11:42:32;;;;;;;16.17;9.77;;;512.40;2304.00;;;;;;4995519;28;20030;-85
2021/10/01 11:45:36;;;;;;;21.08;11.95;;;512.40;2252.80;;;;;;4993426;28;20030;-86
2021/10/01 11:48:08;;;;;;;22.63;8.65;;;512.30;2252.80;;;;;;4963784;28;20039;-84
2021/10/01 11:50:44;;;;;;;17.85;8.27;;;512.40;2252.80;;;;;;4995395;28;20030;-84
2021/10/01 11:53:19;;;;;;;13.52;7.93;;;512.40;2252.80;;;;;;5002817;28;20030;-81
2021/10/01 11:55:53;;;;;;;20.48;8.40;;;512.50;2252.80;;;;;;4995878;28;20060;-85
2021/10/01 11:58:20;;;;;;;15.10;8.70;;;512.70;2227.20;;;;;;4995964;28;20022;-85
2021/10/01 12:00:46;;;;;;;19.70;8.90;;;512.80;2227.20;;;;;;4994886;28;20181;-85
2021/10/01 12:03:16;;;;;;;12.40;8.88;;;538.00;2176.00;;;;;;4993951;28;20033;-85
2021/10/01 12:05:47;;;;;;;14.55;7.85;;;538.50;2099.20;;;;;;4995817;28;20383;-85
2021/10/01 12:08:16;;;;;;;17.70;9.13;;;563.20;2124.80;;;;;;4979518;28;20030;-84
2021/10/01 12:10:47;;;;;;;13.15;7.70;;;563.20;2099.20;;;;;;4990724;28;20018;-84
2021/10/01 12:13:17;;;;;;;21.52;8.63;;;563.60;2124.80;;;;;;5004016;28;20034;-84
2021/10/01 12:16:02;;;;;;;11.80;6.90;;;563.70;2048.00;;;;;;4995340;28;20030;-84
2021/10/01 12:18:39;;;;;;;15.55;7.95;;;563.80;2073.60;;;;;;4994980;28;20027;-87
2021/10/01 12:21:08;;;;;;;15.35;8.90;;;563.90;2073.60;;;;;;4999062;28;20389;-85
2021/10/01 12:23:40;;;;;;;11.85;8.57;;;563.90;2073.60;;;;;;5015294;28;20060;-86
2021/10/01 12:26:25;;;;;;;13.15;6.95;;;563.80;2048.00;;;;;;5000717;28;20100;-85
2021/10/01 12:28:55;;;;;;;9.68;6.50;;;588.80;1971.20;;;;;;4978708;28;20033;-86
2021/10/01 12:31:21;;;;;;;8.75;6.25;;;589.20;1996.80;;;;;;4978582;28;20022;-86
2021/10/01 12:33:48;;;;;;;12.82;7.22;;;588.90;1894.40;;;;;;4993271;28;20050;-87
2021/10/01 12:36:16;;;;;;;16.42;10.00;;;564.10;1920.00;;;;;;4978901;28;20034;-87
2021/10/01 12:38:43;;;;;;;14.88;8.68;;;589.20;1945.60;;;;;;4995144;28;20117;-87
2021/10/01 12:41:16;;;;;;;11.32;7.25;;;589.70;1920.00;;;;;;4978758;28;20041;-87
2021/10/01 12:43:48;;;;;;;14.13;6.78;;;614.50;1843.20;;;;;;4978904;28;20030;-85
2021/10/01 12:46:38;;;;;;;14.40;7.85;;;589.60;1894.40;;;;;;4995144;28;20153;-86
2021/10/01 12:49:19;;;;;;;9.13;7.22;;;614.80;1817.60;;;;;;5011521;28;20065;-85
2021/10/01 12:52:10;;;;;;;16.17;9.07;;;615.10;1792.00;;;;;;4991425;28;20033;-85
2021/10/01 12:54:37;;;;;;;11.70;6.65;;;640.10;1792.00;;;;;;4990424;28;20026;-85
2021/10/01 12:57:29;;;;;;;14.73;6.97;;;640.10;1715.20;;;;;;4982018;28;20027;-86
2021/10/01 13:00:06;;;;;;;14.40;6.78;;;640.40;1740.80;;;;;;4970057;28;20038;-86
2021/10/01 13:02:47;;;;;;;16.20;9.38;;;640.40;1689.60;;;;;;4994474;28;20496;-87
2021/10/01 13:05:21;;;;;;;12.68;6.88;;;640.50;1689.60;;;;;;4994823;28;20080;-86
2021/10/01 13:07:51;;;;;;;12.45;7.50;;;640.80;1664.00;;;;;;4994900;28;20376;-86
2021/10/01 13:10:29;;;;;;;10.60;5.47;;;640.40;1689.60;;;;;;5004962;28;20022;-87
2021/10/01 13:12:56;;;;;;;13.82;5.50;;;615.10;1664.00;;;;;;4996128;28;20026;-86
2021/10/01 13:15:43;;;;;;;9.98;5.28;;;615.20;1715.20;;;;;;4974705;28;20061;-85
2021/10/01 13:18:17;;;;;;;11.95;7.40;;;640.10;1638.40;;;;;;4991283;28;20026;-86
2021/10/01 13:21:03;;;;;;;9.70;5.88;;;640.10;1638.40;;;;;;4996647;28;20026;-86
2021/10/01 13:23:39;;;;;;;10.98;6.15;;;640.00;1638.40;;;;;;4965531;28;20030;-85
2021/10/01 13:26:12;;;;;;;10.10;6.55;;;640.20;1612.80;;;;;;4994393;28;20504;-87
2021/10/01 13:28:39;;;;;;;11.77;6.13;;;640.20;1612.80;;;;;;4994362;28;20096;-85
2021/10/01 13:31:05;;;;;;;10.10;5.88;;;640.00;1612.80;;;;;;4994053;28;20022;-86
2021/10/01 13:33:31;;;;;;;9.10;5.65;;;615.00;1664.00;;;;;;4993798;28;20383;-85
2021/10/01 13:35:58;;;;;;;10.18;5.90;;;640.00;1638.40;;;;;;4994125;28;20037;-86
2021/10/01 13:38:41;;;;;;;11.60;6.00;;;615.30;1638.40;;;;;;4994310;28;20466;-84
2021/10/01 13:41:11;;;;;;;15.32;5.80;;;614.80;1689.60;;;;;;4994094;28;20023;-86
2021/10/01 13:43:38;;;;;;;15.85;5.95;;;589.70;1689.60;;;;;;4995157;28;20038;-86
2021/10/01 13:46:05;;;;;;;9.82;6.07;;;589.40;1715.20;;;;;;4994393;28;20026;-84
2021/10/01 13:48:31;;;;;;;8.80;5.82;;;589.10;1715.20;;;;;;4993980;28;20031;-85
2021/10/01 13:50:57;;;;;;;10.23;5.72;;;588.90;1740.80;;;;;;4993770;28;20037;-85
2021/10/01 13:53:24;;;;;;;16.15;6.18;;;588.80;1766.40;;;;;;4993861;28;20069;-86